createdAt,value
2018-04-10T00:00:11.252Z,3.38
2018-04-10T00:10:06.509Z,3.37
2018-04-10T00:20:04.537Z,3.37
2018-04-10T00:30:01.464Z,3.37
2018-04-10T00:39:58.415Z,3.37
2018-04-10T00:49:56.019Z,3.37
2018-04-10T00:59:51.391Z,3.37
2018-04-10T01:09:47.241Z,3.37
2018-04-10T01:19:44.581Z,3.37
2018-04-10T01:29:41.472Z,3.37
2018-04-10T01:39:37.160Z,3.37
2018-04-10T01:49:34.816Z,3.36
2018-04-10T01:59:31.214Z,3.36
2018-04-10T02:19:28.605Z,3.36
2018-04-10T02:29:25.845Z,3.36
2018-04-10T02:39:21.688Z,3.36
2018-04-10T02:49:18.828Z,3.36
2018-04-10T02:59:13.935Z,3.35
2018-04-10T03:09:10.557Z,3.35
2018-04-10T03:19:08.687Z,3.34
2018-04-10T03:29:05.862Z,3.34
2018-04-10T03:39:03.401Z,3.34
2018-04-10T03:49:00.973Z,3.34
2018-04-10T03:58:57.428Z,3.34
2018-04-10T04:08:53.130Z,3.34
2018-04-10T04:18:52.003Z,3.34
2018-04-10T04:28:44.727Z,3.34
2018-04-10T04:38:40.910Z,3.34
2018-04-10T04:48:35.387Z,3.34
2018-04-10T04:58:30.993Z,3.35
2018-04-10T05:08:29.109Z,3.36
2018-04-10T05:18:26.606Z,3.36
2018-04-10T05:28:23.006Z,3.36
2018-04-10T05:38:20.458Z,3.37
2018-04-10T05:48:19.343Z,3.37
2018-04-10T05:58:15.857Z,3.37
2018-04-10T06:08:13.407Z,3.37
2018-04-10T06:18:09.994Z,3.38
2018-04-10T06:28:08.955Z,3.39
2018-04-10T06:38:06.256Z,3.41
2018-04-10T06:48:02.415Z,3.41
2018-04-10T06:58:02.076Z,3.40
2018-04-10T07:07:58.882Z,3.40
2018-04-10T07:17:56.605Z,3.40
2018-04-10T07:27:52.729Z,3.40
2018-04-10T07:37:46.728Z,3.41
2018-04-10T07:47:41.707Z,3.42
2018-04-10T07:57:39.387Z,3.42
2018-04-10T08:07:33.611Z,3.42
2018-04-10T08:17:32.385Z,3.42
2018-04-10T08:27:30.313Z,3.42
2018-04-10T08:37:23.292Z,3.42
2018-04-10T08:47:13.492Z,3.44
2018-04-10T08:57:10.059Z,3.43
2018-04-10T09:07:07.771Z,3.42
2018-04-10T09:17:02.143Z,3.42
2018-04-10T09:26:59.697Z,3.42
2018-04-10T09:36:54.502Z,3.43
2018-04-10T09:46:49.698Z,3.43
2018-04-10T09:56:46.478Z,3.42
2018-04-10T10:06:38.765Z,3.42
2018-04-10T10:16:35.275Z,3.42
2018-04-10T10:26:13.369Z,3.42
2018-04-10T10:36:10.281Z,3.42
2018-04-10T10:45:49.297Z,3.42
2018-04-10T10:55:44.274Z,3.42
2018-04-10T11:05:21.776Z,3.42
2018-04-10T11:14:58.929Z,3.42
2018-04-10T11:24:55.012Z,3.42
2018-04-10T11:34:33.471Z,3.42
2018-04-10T11:44:11.106Z,3.42
2018-04-10T11:53:48.451Z,3.42
2018-04-10T12:03:26.041Z,3.42
2018-04-10T12:13:01.758Z,3.42
2018-04-10T12:22:36.255Z,3.42
2018-04-10T12:32:11.239Z,3.43
2018-04-10T12:41:47.344Z,3.43
2018-04-10T12:51:24.669Z,3.43
2018-04-10T13:01:01.502Z,3.42
2018-04-10T13:10:38.370Z,3.43
2018-04-10T13:20:17.772Z,3.43
2018-04-10T13:29:47.089Z,3.43
2018-04-10T13:39:22.451Z,3.43
2018-04-10T13:48:59.251Z,3.43
2018-04-10T13:58:37.428Z,3.43
2018-04-10T14:08:14.424Z,3.43
2018-04-10T14:17:52.028Z,3.43
2018-04-10T14:27:26.751Z,3.42
2018-04-10T14:37:04.507Z,3.42
2018-04-10T14:46:31.377Z,3.42
2018-04-10T14:56:06.277Z,3.43
2018-04-10T15:05:45.062Z,3.43
2018-04-10T15:15:26.461Z,3.43
2018-04-10T15:24:54.032Z,3.43
2018-04-10T15:34:28.658Z,3.43
2018-04-10T15:44:05.682Z,3.43
2018-04-10T15:53:43.576Z,3.43
2018-04-10T16:03:19.830Z,3.42
2018-04-10T16:12:56.811Z,3.43
2018-04-10T16:22:33.216Z,3.43
2018-04-10T16:32:14.053Z,3.42
2018-04-10T16:41:41.902Z,3.42
2018-04-10T16:51:16.636Z,3.44
2018-04-10T17:00:53.188Z,3.44
2018-04-10T17:10:30.131Z,3.44
2018-04-10T17:20:05.090Z,3.44
2018-04-10T17:29:41.776Z,3.43
2018-04-10T17:39:20.598Z,3.43
2018-04-10T17:48:48.550Z,3.43
2018-04-10T17:58:25.363Z,3.43
2018-04-10T18:08:00.645Z,3.43
2018-04-10T18:17:37.089Z,3.42
2018-04-10T18:27:32.226Z,3.42
2018-04-10T18:37:29.722Z,3.42
2018-04-10T18:47:23.694Z,3.42
2018-04-10T18:57:18.867Z,3.42
2018-04-10T19:07:13.233Z,3.41
2018-04-10T19:17:09.427Z,3.41
2018-04-10T19:27:07.028Z,3.41
2018-04-10T19:37:01.887Z,3.41
2018-04-10T19:46:56.248Z,3.40
2018-04-10T19:56:52.811Z,3.40
2018-04-10T20:06:46.835Z,3.40
2018-04-10T20:16:42.734Z,3.40
2018-04-10T20:26:39.768Z,3.40
2018-04-10T20:36:35.025Z,3.40
2018-04-10T20:46:31.046Z,3.39
2018-04-10T20:56:28.846Z,3.39
2018-04-10T21:06:24.512Z,3.39
2018-04-10T21:16:22.044Z,3.39
2018-04-10T21:26:17.098Z,3.39
2018-04-10T21:36:11.755Z,3.39
2018-04-10T21:46:09.520Z,3.39
2018-04-10T21:56:06.108Z,3.39
2018-04-10T22:06:02.116Z,3.39
2018-04-10T22:15:59.097Z,3.39
2018-04-10T22:25:57.825Z,3.39
2018-04-10T22:35:45.824Z,3.39
2018-04-10T22:45:43.402Z,3.39
2018-04-10T22:55:41.304Z,3.38
2018-04-10T23:05:37.364Z,3.38
2018-04-10T23:15:34.269Z,3.38
2018-04-10T23:25:31.334Z,3.38
2018-04-10T23:35:28.361Z,3.38
2018-04-10T23:45:24.055Z,3.38
2018-04-10T23:55:21.205Z,3.38
